Time;durP1;ratioP1;P1;durP2;ratioP2;P2;SDS_P1;SDS_P2;PMS_P1;PMS_P2;Temp;Humidity;BMP_temperature;BMP_pressure;BME280_temperature;BME280_humidity;BME280_pressure;Samples;Min_cycle;Max_cycle;Signal;HPM_P1;HPM_P2
2020/12/07 00:01:52;;;;;;;1.77;1.48;;;2.80;1.00;;;;;;5061556;28;20237;-71
2020/12/07 00:04:20;;;;;;;2.10;1.50;;;2.80;1.00;;;;;;5063848;28;20214;-71
2020/12/07 00:06:52;;;;;;;1.83;1.50;;;2.80;1.00;;;;;;5057016;28;20260;-71
2020/12/07 00:09:19;;;;;;;2.22;1.95;;;2.80;1.00;;;;;;5062169;28;20210;-71
2020/12/07 00:11:49;;;;;;;2.40;1.50;;;2.70;1.00;;;;;;5065183;28;20221;-71
2020/12/07 00:14:17;;;;;;;2.97;1.60;;;2.70;1.60;;;;;;5059214;28;20207;-71
2020/12/07 00:16:45;;;;;;;1.60;1.50;;;2.70;1.00;;;;;;5062672;28;20231;-70
2020/12/07 00:19:12;;;;;;;1.50;1.40;;;2.70;5.10;;;;;;5062100;28;20208;-72
2020/12/07 00:21:42;;;;;;;1.50;1.40;;;2.70;1.00;;;;;;5060971;28;20339;-71
2020/12/07 00:24:10;;;;;;;1.40;1.30;;;2.70;2.30;;;;;;5063535;28;20268;-71
2020/12/07 00:26:37;;;;;;;2.35;1.48;;;2.80;1.00;;;;;;5062691;28;20237;-71
2020/12/07 00:29:04;;;;;;;1.90;1.50;;;2.70;1.00;;;;;;5064425;28;20217;-71
2020/12/07 00:31:34;;;;;;;2.10;1.90;;;2.70;4.30;;;;;;5060006;28;20217;-70
2020/12/07 00:34:03;;;;;;;2.05;1.60;;;2.60;8.30;;;;;;5063275;28;20309;-71
2020/12/07 00:36:30;;;;;;;2.08;1.85;;;2.60;15.20;;;;;;5064879;28;20721;-72
2020/12/07 00:38:58;;;;;;;2.47;1.77;;;2.60;19.90;;;;;;5062186;28;20877;-71
2020/12/07 00:41:26;;;;;;;1.67;1.45;;;2.60;22.20;;;;;;5055778;28;20242;-72
2020/12/07 00:43:53;;;;;;;1.77;1.25;;;2.60;14.50;;;;;;5063046;28;20264;-72
2020/12/07 00:46:20;;;;;;;1.88;1.52;;;2.60;20.40;;;;;;5065013;28;20265;-71
2020/12/07 00:48:47;;;;;;;1.80;1.35;;;2.60;27.10;;;;;;5061959;28;20258;-70
2020/12/07 00:51:14;;;;;;;2.00;1.40;;;2.70;14.10;;;;;;5058218;28;20210;-72
2020/12/07 00:53:41;;;;;;;1.60;1.50;;;2.70;16.20;;;;;;5062204;28;20709;-71
2020/12/07 00:56:12;;;;;;;1.60;1.50;;;2.70;16.40;;;;;;5059049;28;20619;-71
2020/12/07 00:58:40;;;;;;;1.80;1.63;;;2.70;17.90;;;;;;5065608;28;20207;-71
2020/12/07 01:01:07;;;;;;;1.40;1.30;;;2.80;12.00;;;;;;5060947;28;20239;-72
2020/12/07 01:03:34;;;;;;;1.70;1.23;;;2.80;8.60;;;;;;5060687;28;20255;-70
2020/12/07 01:06:01;;;;;;;1.73;1.50;;;3.00;6.60;;;;;;5061178;28;20603;-70
2020/12/07 01:08:28;;;;;;;1.95;1.65;;;3.00;1.00;;;;;;5063407;28;20550;-71
2020/12/07 01:10:57;;;;;;;1.80;1.70;;;2.90;1.00;;;;;;5059582;28;20207;-70
2020/12/07 01:13:25;;;;;;;1.75;1.52;;;2.90;1.00;;;;;;5059559;28;20686;-71
2020/12/07 01:15:52;;;;;;;1.83;1.60;;;2.90;6.50;;;;;;5059406;28;20282;-71
2020/12/07 01:18:19;;;;;;;1.70;1.55;;;3.00;1.00;;;;;;5063876;28;20590;-71
2020/12/07 01:20:46;;;;;;;1.75;1.45;;;3.00;1.00;;;;;;5059415;28;20684;-71
2020/12/07 01:23:13;;;;;;;2.53;2.20;;;3.10;1.00;;;;;;5048824;28;20346;-72
2020/12/07 01:25:40;;;;;;;3.00;2.20;;;3.00;1.00;;;;;;5061970;28;20233;-71
2020/12/07 01:28:08;;;;;;;2.70;2.50;;;3.00;1.00;;;;;;5064232;28;20222;-71
2020/12/07 01:30:35;;;;;;;2.22;2.13;;;3.00;1.00;;;;;;5063057;28;20213;-71
2020/12/07 01:33:03;;;;;;;3.90;2.33;;;3.00;1.00;;;;;;5058944;28;20296;-70
2020/12/07 01:35:30;;;;;;;2.35;1.92;;;2.90;1.00;;;;;;5077312;28;20317;-71
2020/12/07 01:37:57;;;;;;;3.08;2.58;;;2.80;1.00;;;;;;5063397;28;20648;-71
2020/12/07 01:40:24;;;;;;;3.03;2.28;;;2.80;2.70;;;;;;5063962;28;20359;-70
2020/12/07 01:42:51;;;;;;;2.65;2.40;;;2.70;12.30;;;;;;5060839;28;20285;-71
2020/12/07 01:45:18;;;;;;;2.88;2.67;;;2.70;18.30;;;;;;5056706;28;20283;-71
2020/12/07 01:47:46;;;;;;;3.50;3.20;;;2.70;24.60;;;;;;5061186;28;20231;-71
2020/12/07 01:50:14;;;;;;;2.80;2.55;;;2.70;22.70;;;;;;5062518;28;20233;-71
2020/12/07 01:52:41;;;;;;;3.05;2.65;;;2.60;27.50;;;;;;5059997;28;20211;-71
2020/12/07 01:55:08;;;;;;;2.72;2.50;;;2.50;31.30;;;;;;5060702;28;20218;-70
2020/12/07 01:57:35;;;;;;;2.95;2.65;;;2.40;44.10;;;;;;5062875;28;20248;-70
2020/12/07 02:00:05;;;;;;;3.15;2.13;;;2.40;50.40;;;;;;5057851;28;20210;-71
2020/12/07 02:02:33;;;;;;;2.90;2.70;;;2.50;59.70;;;;;;5058254;28;20235;-71
2020/12/07 02:05:02;;;;;;;2.80;2.60;;;2.40;58.60;;;;;;5059994;28;20234;-70
2020/12/07 02:07:29;;;;;;;3.28;2.75;;;2.40;62.10;;;;;;5059103;28;20214;-72
2020/12/07 02:09:56;;;;;;;3.15;2.38;;;2.50;65.20;;;;;;5062429;28;20211;-71
2020/12/07 02:12:23;;;;;;;2.58;2.38;;;2.40;62.80;;;;;;5057118;28;20218;-72
2020/12/07 02:14:50;;;;;;;2.60;2.40;;;2.40;67.90;;;;;;5062642;28;20556;-72
2020/12/07 02:17:18;;;;;;;2.38;2.15;;;2.40;72.60;;;;;;5061505;28;20235;-71
2020/12/07 02:19:49;;;;;;;3.15;2.30;;;2.40;73.10;;;;;;5059067;28;20202;-72
2020/12/07 02:22:16;;;;;;;3.13;2.60;;;2.40;74.00;;;;;;5062085;28;20283;-71
2020/12/07 02:24:43;;;;;;;2.78;2.58;;;2.30;79.70;;;;;;5062822;28;20629;-72
2020/12/07 02:27:10;;;;;;;2.50;2.30;;;2.30;84.10;;;;;;5064179;28;20817;-72
2020/12/07 02:29:37;;;;;;;2.47;2.28;;;2.30;88.00;;;;;;5063535;28;20206;-72
2020/12/07 02:32:12;;;;;;;2.45;2.25;;;2.30;89.80;;;;;;5060747;28;20204;-72
2020/12/07 02:34:40;;;;;;;2.88;2.67;;;2.30;92.00;;;;;;5064893;28;20301;-72
2020/12/07 02:37:09;;;;;;;2.33;2.13;;;2.40;90.10;;;;;;5065005;28;20323;-71
2020/12/07 02:39:37;;;;;;;2.70;2.35;;;2.50;83.00;;;;;;5058998;28;20221;-73
2020/12/07 02:42:05;;;;;;;2.20;2.03;;;2.50;80.20;;;;;;5052437;28;20228;-70
2020/12/07 02:44:32;;;;;;;3.05;2.10;;;2.50;79.90;;;;;;5063953;28;20299;-71
2020/12/07 02:46:59;;;;;;;3.08;2.80;;;2.50;72.30;;;;;;5063272;28;20299;-72
2020/12/07 02:49:27;;;;;;;2.13;2.03;;;2.50;72.10;;;;;;5063184;28;20231;-72
2020/12/07 02:51:55;;;;;;;2.63;2.33;;;2.50;73.60;;;;;;5065463;28;20260;-71
2020/12/07 02:54:23;;;;;;;2.60;2.20;;;2.60;75.40;;;;;;5064211;28;20271;-73
2020/12/07 02:56:50;;;;;;;2.35;2.15;;;2.60;69.60;;;;;;5056286;28;20242;-70
2020/12/07 02:59:17;;;;;;;2.60;2.40;;;2.60;76.00;;;;;;5061573;28;20211;-72
2020/12/07 03:01:44;;;;;;;1.88;1.77;;;2.70;63.40;;;;;;5058666;28;20223;-71
2020/12/07 03:04:11;;;;;;;2.15;2.05;;;2.60;58.90;;;;;;5056954;28;20210;-71
2020/12/07 03:06:38;;;;;;;1.73;1.63;;;2.60;67.10;;;;;;5060026;28;20235;-67
2020/12/07 03:09:05;;;;;;;2.85;2.38;;;2.50;63.80;;;;;;5058771;28;20710;-71
2020/12/07 03:11:33;;;;;;;2.25;1.70;;;2.50;68.50;;;;;;5057754;28;20340;-71
2020/12/07 03:14:00;;;;;;;2.00;1.75;;;2.50;79.70;;;;;;5062239;28;20475;-71
2020/12/07 03:16:27;;;;;;;2.40;2.00;;;2.50;83.20;;;;;;5059350;28;20254;-71
2020/12/07 03:18:55;;;;;;;2.05;1.80;;;2.50;85.50;;;;;;5056297;28;20210;-72
2020/12/07 03:21:22;;;;;;;1.92;1.83;;;2.50;87.30;;;;;;5055432;28;20210;-71
2020/12/07 03:23:49;;;;;;;1.90;1.63;;;2.50;77.80;;;;;;5059035;28;20577;-71
2020/12/07 03:26:16;;;;;;;3.03;2.35;;;2.50;75.90;;;;;;5058744;28;20895;-72
2020/12/07 03:28:44;;;;;;;2.65;2.20;;;2.50;81.10;;;;;;5059242;28;20751;-71
2020/12/07 03:31:12;;;;;;;2.10;1.90;;;2.50;84.80;;;;;;5059963;28;20252;-71
2020/12/07 03:33:39;;;;;;;3.05;2.85;;;2.50;90.50;;;;;;5064104;28;20699;-71
2020/12/07 03:36:06;;;;;;;2.75;1.65;;;2.50;88.50;;;;;;5065757;28;20235;-71
2020/12/07 03:38:33;;;;;;;4.05;3.25;;;2.50;88.80;;;;;;5063958;28;20316;-71
2020/12/07 03:41:00;;;;;;;2.53;2.30;;;2.40;89.70;;;;;;5062321;28;20224;-71
2020/12/07 03:43:28;;;;;;;2.85;2.65;;;2.40;93.00;;;;;;5062553;28;20223;-71
2020/12/07 03:45:56;;;;;;;2.60;2.35;;;2.40;95.80;;;;;;5062867;28;20281;-72
2020/12/07 03:48:23;;;;;;;3.67;2.65;;;2.40;95.00;;;;;;5064898;28;20248;-71
2020/12/07 03:50:50;;;;;;;3.85;3.55;;;2.50;96.40;;;;;;5061887;28;20211;-71
2020/12/07 03:53:18;;;;;;;1.88;1.77;;;2.50;93.70;;;;;;5062045;28;20231;-70
2020/12/07 03:55:45;;;;;;;2.40;2.20;;;2.60;95.10;;;;;;5062258;28;20271;-71
2020/12/07 03:58:12;;;;;;;2.22;1.85;;;2.60;88.40;;;;;;5061299;28;20212;-72
2020/12/07 04:00:39;;;;;;;1.98;1.88;;;2.60;85.30;;;;;;5061176;28;20219;-71
2020/12/07 04:03:09;;;;;;;1.50;1.40;;;2.70;79.00;;;;;;5062312;28;20236;-72
2020/12/07 04:05:38;;;;;;;1.73;1.60;;;2.60;76.00;;;;;;5060520;28;20236;-71
2020/12/07 04:08:05;;;;;;;2.10;1.92;;;2.60;75.70;;;;;;5063253;28;20757;-71
2020/12/07 04:10:32;;;;;;;1.40;1.30;;;2.60;79.90;;;;;;5065931;28;20745;-71
2020/12/07 04:12:59;;;;;;;1.83;1.63;;;2.60;80.30;;;;;;5061996;28;20675;-72
2020/12/07 04:15:27;;;;;;;1.58;1.40;;;2.60;75.00;;;;;;5064265;28;20946;-72
2020/12/07 04:17:54;;;;;;;1.95;1.73;;;2.70;74.30;;;;;;5060280;28;20211;-72
2020/12/07 04:20:22;;;;;;;1.88;1.70;;;2.60;73.30;;;;;;5065656;28;20304;-73
2020/12/07 04:22:49;;;;;;;1.60;1.50;;;2.70;75.90;;;;;;5061091;28;20226;-72
2020/12/07 04:25:16;;;;;;;2.60;2.38;;;2.70;72.90;;;;;;5061550;28;20266;-72
2020/12/07 04:27:44;;;;;;;2.75;1.80;;;2.70;68.50;;;;;;5062718;28;20255;-72
2020/12/07 04:30:11;;;;;;;3.40;2.45;;;2.80;63.20;;;;;;5064963;28;20222;-73
2020/12/07 04:32:38;;;;;;;1.85;1.75;;;2.80;64.50;;;;;;5053984;28;20718;-72
2020/12/07 04:35:05;;;;;;;1.98;1.70;;;2.70;72.80;;;;;;5056499;28;20323;-73
2020/12/07 04:37:33;;;;;;;2.20;2.00;;;2.80;70.30;;;;;;5061175;28;20214;-73
2020/12/07 04:40:00;;;;;;;2.00;1.80;;;2.80;67.60;;;;;;5061288;28;20765;-72
2020/12/07 04:42:28;;;;;;;1.80;1.70;;;2.80;55.40;;;;;;5062176;28;20262;-73
2020/12/07 04:44:56;;;;;;;2.47;2.28;;;2.80;60.30;;;;;;5058760;28;20219;-73
2020/12/07 04:47:25;;;;;;;2.53;2.33;;;2.80;62.50;;;;;;5057257;28;20243;-73
2020/12/07 04:49:53;;;;;;;2.88;2.45;;;2.80;74.80;;;;;;5059689;28;20212;-72
2020/12/07 04:52:21;;;;;;;3.30;2.75;;;2.80;68.40;;;;;;5064499;28;20220;-73
2020/12/07 04:54:49;;;;;;;2.25;2.05;;;2.80;68.10;;;;;;5062160;28;20273;-73
2020/12/07 04:57:18;;;;;;;2.97;2.35;;;2.90;72.30;;;;;;5061366;28;20247;-72
2020/12/07 04:59:45;;;;;;;2.15;1.95;;;2.90;66.90;;;;;;5063801;28;20907;-72
2020/12/07 05:02:12;;;;;;;2.63;2.33;;;2.90;59.70;;;;;;5055643;28;20235;-74
2020/12/07 05:04:40;;;;;;;5.00;3.75;;;2.90;55.70;;;;;;5052970;28;20203;-73
2020/12/07 05:07:09;;;;;;;2.95;2.20;;;3.00;59.80;;;;;;5059319;28;20235;-73
2020/12/07 05:09:38;;;;;;;2.20;2.00;;;3.00;56.00;;;;;;5057453;28;20215;-73
2020/12/07 05:12:14;;;;;;;2.65;2.45;;;3.00;55.00;;;;;;5059214;28;20205;-72
2020/12/07 05:14:42;;;;;;;2.47;2.28;;;3.10;57.10;;;;;;5063451;28;20217;-72
2020/12/07 05:17:09;;;;;;;2.65;2.10;;;3.10;56.30;;;;;;5059232;28;20234;-74
2020/12/07 05:19:36;;;;;;;2.88;2.58;;;3.10;52.60;;;;;;5061152;28;20242;-74
2020/12/07 05:22:14;;;;;;;2.35;2.10;;;3.10;50.40;;;;;;5061892;28;20252;-72
2020/12/07 05:24:41;;;;;;;3.20;2.90;;;3.10;49.00;;;;;;5060246;28;20290;-74
2020/12/07 05:27:11;;;;;;;2.58;2.38;;;3.00;53.10;;;;;;5058671;28;20237;-74
2020/12/07 05:29:50;;;;;;;3.35;2.47;;;3.10;57.10;;;;;;5061905;28;20228;-74
2020/12/07 05:32:17;;;;;;;3.15;2.50;;;3.10;45.00;;;;;;5061065;28;20222;-73
2020/12/07 05:34:45;;;;;;;3.20;2.78;;;3.10;44.90;;;;;;5056610;28;20785;-74
2020/12/07 05:37:17;;;;;;;2.70;2.50;;;3.00;49.60;;;;;;5053245;28;20621;-73
2020/12/07 05:39:44;;;;;;;3.65;2.17;;;3.00;52.40;;;;;;5058675;28;20217;-73
2020/12/07 05:42:13;;;;;;;3.42;3.08;;;3.10;52.20;;;;;;5059008;28;20879;-73
2020/12/07 05:44:43;;;;;;;2.88;2.40;;;3.10;51.10;;;;;;5062011;28;20212;-73
2020/12/07 05:47:11;;;;;;;4.13;3.28;;;3.10;48.60;;;;;;5058132;28;20716;-75
2020/12/07 05:49:39;;;;;;;2.63;2.42;;;3.10;48.30;;;;;;5058780;28;20321;-73
2020/12/07 05:52:06;;;;;;;2.80;2.40;;;3.00;50.20;;;;;;5060217;28;20214;-73
2020/12/07 05:54:34;;;;;;;2.70;2.50;;;3.10;51.90;;;;;;5062585;28;20218;-75
2020/12/07 05:57:09;;;;;;;7.55;5.30;;;3.20;51.20;;;;;;5059585;28;20285;-73
2020/12/07 05:59:41;;;;;;;4.38;2.95;;;3.10;41.70;;;;;;5060832;28;20908;-73
2020/12/07 06:02:15;;;;;;;7.72;4.60;;;3.20;48.20;;;;;;5062818;28;20741;-76
2020/12/07 06:04:42;;;;;;;7.07;5.10;;;3.20;43.30;;;;;;5065534;28;20218;-74
2020/12/07 06:07:11;;;;;;;10.35;5.93;;;3.20;41.10;;;;;;5064099;28;20234;-76
2020/12/07 06:09:40;;;;;;;7.85;6.07;;;3.20;45.50;;;;;;5054734;28;20220;-76
2020/12/07 06:12:10;;;;;;;4.10;3.65;;;3.30;38.10;;;;;;5054216;28;20229;-76
2020/12/07 06:14:39;;;;;;;4.35;3.95;;;3.30;28.30;;;;;;5052994;28;20362;-76
2020/12/07 06:17:06;;;;;;;4.50;3.40;;;3.30;23.30;;;;;;5062702;28;20497;-75
2020/12/07 06:19:33;;;;;;;3.72;3.42;;;3.20;21.00;;;;;;5058964;28;20696;-75
2020/12/07 06:22:02;;;;;;;4.43;3.35;;;3.10;26.20;;;;;;5063198;28;20894;-74
2020/12/07 06:24:48;;;;;;;4.90;3.85;;;3.20;28.20;;;;;;5058852;28;20215;-75
2020/12/07 06:27:16;;;;;;;5.72;2.80;;;3.10;23.10;;;;;;5066550;28;20297;-75
2020/12/07 06:30:05;;;;;;;5.40;4.90;;;3.00;29.30;;;;;;5064088;28;20268;-75
2020/12/07 06:32:45;;;;;;;7.70;5.03;;;3.00;33.50;;;;;;5064150;28;20211;-75
2020/12/07 06:35:13;;;;;;;7.10;4.95;;;3.00;37.30;;;;;;5065901;28;20242;-75
2020/12/07 06:37:44;;;;;;;5.25;3.65;;;3.00;39.80;;;;;;5065569;28;20225;-75
2020/12/07 06:40:12;;;;;;;5.80;4.13;;;3.00;36.60;;;;;;5062098;28;20210;-74
2020/12/07 06:42:43;;;;;;;5.30;4.03;;;2.90;44.60;;;;;;5062265;28;20257;-74
2020/12/07 06:45:22;;;;;;;3.22;2.83;;;3.00;44.00;;;;;;5059880;28;20752;-75
2020/12/07 06:47:51;;;;;;;4.40;3.75;;;3.00;45.20;;;;;;5063878;28;20292;-75
2020/12/07 06:50:21;;;;;;;4.43;3.65;;;3.10;39.20;;;;;;5065622;28;20220;-74
2020/12/07 06:52:49;;;;;;;5.23;4.73;;;3.00;30.90;;;;;;5058855;28;20492;-75
2020/12/07 06:55:17;;;;;;;4.18;3.80;;;3.00;25.60;;;;;;5063688;28;20517;-75
2020/12/07 06:57:46;;;;;;;4.93;4.40;;;3.10;32.60;;;;;;5057895;28;20242;-74
2020/12/07 07:00:16;;;;;;;4.30;3.90;;;3.10;23.20;;;;;;5053673;28;20237;-73
2020/12/07 07:02:46;;;;;;;4.97;4.47;;;3.10;17.50;;;;;;5053855;28;20242;-75
2020/12/07 07:05:15;;;;;;;5.82;4.00;;;3.10;13.30;;;;;;5059526;28;20240;-75
2020/12/07 07:07:43;;;;;;;6.30;4.60;;;3.20;13.30;;;;;;5053689;28;20241;-76
2020/12/07 07:10:13;;;;;;;5.70;5.18;;;3.10;12.30;;;;;;5055501;28;20285;-76
2020/12/07 07:12:42;;;;;;;4.40;4.05;;;3.10;11.80;;;;;;5050024;28;20261;-74
2020/12/07 07:15:10;;;;;;;7.00;5.82;;;3.20;15.70;;;;;;5060104;28;21003;-75
2020/12/07 07:17:39;;;;;;;6.20;5.10;;;3.10;13.10;;;;;;5058279;28;20212;-75
2020/12/07 07:20:08;;;;;;;5.72;4.50;;;3.20;12.80;;;;;;5063938;28;20233;-76
2020/12/07 07:22:38;;;;;;;7.22;4.80;;;3.30;9.20;;;;;;5057227;28;20241;-75
2020/12/07 07:25:18;;;;;;;5.70;4.93;;;3.30;1.00;;;;;;5061785;28;20258;-74
2020/12/07 07:28:05;;;;;;;6.53;4.18;;;3.20;3.60;;;;;;5061748;28;20213;-76
2020/12/07 07:30:33;;;;;;;8.10;5.57;;;3.10;5.20;;;;;;5057366;28;20222;-75
2020/12/07 07:33:01;;;;;;;6.25;4.32;;;3.00;19.70;;;;;;5050333;28;21771;-74
2020/12/07 07:35:30;;;;;;;6.55;5.78;;;3.00;25.50;;;;;;5057070;28;20288;-76
2020/12/07 07:37:59;;;;;;;11.18;5.15;;;3.00;33.00;;;;;;5058807;28;20216;-75
2020/12/07 07:40:27;;;;;;;7.60;4.80;;;3.10;31.30;;;;;;5062885;28;20211;-75
2020/12/07 07:42:57;;;;;;;6.50;5.90;;;3.10;26.70;;;;;;5063601;28;20237;-75
2020/12/07 07:45:26;;;;;;;7.70;5.50;;;3.10;22.90;;;;;;5060924;28;20721;-75
2020/12/07 07:47:58;;;;;;;6.82;5.93;;;3.10;23.00;;;;;;5061197;28;20264;-74
2020/12/07 07:50:53;;;;;;;6.03;4.47;;;3.20;30.70;;;;;;5062534;28;20412;-75
2020/12/07 08:16:19;;;;;;;4.40;2.83;;;3.90;1.00;;;;;;5053175;28;20297;-75
2020/12/07 08:18:49;;;;;;;2.97;2.67;;;4.40;1.00;;;;;;5053305;28;20724;-75
2020/12/07 08:21:31;;;;;;;2.70;2.50;;;5.10;99.90;;;;;;5052626;28;20267;-75
2020/12/07 08:24:08;;;;;;;4.15;3.22;;;5.40;1.00;;;;;;5058901;28;20261;-73
2020/12/07 08:26:42;;;;;;;2.43;2.23;;;5.60;1.00;;;;;;5058828;28;20232;-74
2020/12/07 08:29:09;;;;;;;3.40;3.13;;;5.50;99.90;;;;;;5064522;28;20469;-74
2020/12/07 08:31:38;;;;;;;2.83;2.60;;;5.90;27.50;;;;;;5055972;28;20488;-75
2020/12/07 08:34:09;;;;;;;2.63;2.43;;;5.90;1.00;;;;;;5052718;28;20473;-72
2020/12/07 08:36:37;;;;;;;3.50;3.00;;;6.00;1.00;;;;;;5048925;28;20493;-74
2020/12/07 08:39:08;;;;;;;3.07;2.70;;;6.20;1.00;;;;;;5058754;28;20776;-75
2020/12/07 08:41:36;;;;;;;2.50;2.30;;;6.40;85.40;;;;;;5058379;28;20538;-76
2020/12/07 08:44:06;;;;;;;2.73;2.43;;;6.80;99.90;;;;;;5053864;28;21019;-76
2020/12/07 08:46:36;;;;;;;2.90;2.63;;;7.10;99.90;;;;;;5065232;28;20499;-75
2020/12/07 08:49:05;;;;;;;2.70;2.00;;;6.70;99.90;;;;;;5049541;28;20477;-74
2020/12/07 08:51:34;;;;;;;2.47;2.27;;;6.50;1.00;;;;;;5055862;28;20482;-73
2020/12/07 08:54:02;;;;;;;4.17;3.60;;;6.20;40.70;;;;;;5070024;28;20589;-74
2020/12/07 08:56:31;;;;;;;2.87;2.60;;;6.10;1.00;;;;;;5061296;28;20894;-74
2020/12/07 08:58:59;;;;;;;2.60;2.40;;;5.90;1.00;;;;;;5053378;28;20477;-73
2020/12/07 09:01:26;;;;;;;3.17;2.50;;;5.80;1.00;;;;;;5059330;28;20473;-74
2020/12/07 09:03:54;;;;;;;3.30;3.00;;;5.70;1.00;;;;;;5057403;28;21058;-75
2020/12/07 09:06:22;;;;;;;4.73;3.60;;;5.90;99.90;;;;;;5052351;28;20487;-74
2020/12/07 09:08:49;;;;;;;3.60;3.30;;;6.00;99.90;;;;;;5051853;28;20452;-74
2020/12/07 09:11:18;;;;;;;4.13;2.60;;;6.10;99.90;;;;;;5053754;28;20468;-72
2020/12/07 09:13:47;;;;;;;2.80;2.47;;;6.00;84.00;;;;;;5050416;28;20503;-73
2020/12/07 09:16:15;;;;;;;3.10;2.80;;;5.60;36.50;;;;;;5051128;28;20495;-77
2020/12/07 09:18:42;;;;;;;3.77;3.40;;;5.40;1.00;;;;;;5056275;28;20657;-74
2020/12/07 09:21:10;;;;;;;4.97;2.60;;;5.30;99.90;;;;;;5061416;28;20464;-75
2020/12/07 09:23:39;;;;;;;3.10;2.90;;;5.10;75.40;;;;;;5054404;28;21005;-76
2020/12/07 09:26:07;;;;;;;3.63;3.30;;;5.10;99.90;;;;;;5061636;28;20725;-75
2020/12/07 09:28:36;;;;;;;3.45;3.20;;;5.10;99.90;;;;;;5078430;28;20482;-75
2020/12/07 09:31:05;;;;;;;4.10;3.80;;;5.00;99.90;;;;;;5054849;28;20502;-74
2020/12/07 09:33:33;;;;;;;3.08;2.88;;;5.20;99.90;;;;;;5053902;28;20467;-75
2020/12/07 09:36:01;;;;;;;3.53;3.23;;;5.30;99.90;;;;;;5052355;28;20244;-74
2020/12/07 09:38:29;;;;;;;3.67;3.10;;;5.40;99.90;;;;;;5056517;28;20476;-74
2020/12/07 09:40:58;;;;;;;3.70;3.40;;;5.40;99.90;;;;;;5059376;28;20478;-75
2020/12/07 09:43:26;;;;;;;3.77;3.40;;;5.50;1.00;;;;;;5056830;28;20596;-74
2020/12/07 09:45:54;;;;;;;3.75;2.63;;;5.20;1.00;;;;;;5051388;28;20495;-76
2020/12/07 09:48:23;;;;;;;3.05;2.75;;;4.90;99.90;;;;;;5052567;28;20681;-74
2020/12/07 09:50:51;;;;;;;3.08;2.60;;;4.80;1.00;;;;;;5057231;28;20210;-73
2020/12/07 09:53:19;;;;;;;3.85;3.55;;;4.80;1.00;;;;;;5052678;28;22271;-72
2020/12/07 09:55:47;;;;;;;3.60;3.08;;;4.80;1.00;;;;;;5075816;28;20241;-75
2020/12/07 09:58:15;;;;;;;3.75;3.08;;;4.70;1.00;;;;;;5062652;28;20224;-75
2020/12/07 10:00:43;;;;;;;3.10;2.72;;;4.70;1.00;;;;;;5060235;28;20218;-74
2020/12/07 10:03:11;;;;;;;4.10;3.50;;;4.60;1.00;;;;;;5055502;28;20579;-73
2020/12/07 10:05:39;;;;;;;5.50;3.55;;;4.70;1.00;;;;;;5056543;28;20238;-75
2020/12/07 10:08:07;;;;;;;4.38;3.22;;;4.80;1.00;;;;;;5055897;28;20229;-75
2020/12/07 10:10:35;;;;;;;3.95;3.08;;;4.80;1.00;;;;;;5060012;28;20299;-75
2020/12/07 10:13:08;;;;;;;3.17;2.88;;;4.90;1.00;;;;;;5061558;28;20341;-74
2020/12/07 10:15:35;;;;;;;3.70;2.70;;;5.20;1.00;;;;;;5054123;28;20244;-76
2020/12/07 10:18:02;;;;;;;3.80;3.50;;;5.10;99.90;;;;;;5051369;28;20220;-73
2020/12/07 10:20:30;;;;;;;3.70;3.40;;;5.00;99.90;;;;;;5058676;28;20219;-74
2020/12/07 10:22:58;;;;;;;3.78;3.40;;;5.40;99.90;;;;;;5056845;28;20240;-75
2020/12/07 10:25:26;;;;;;;2.80;2.60;;;5.90;1.00;;;;;;5057017;28;20237;-74
2020/12/07 10:27:54;;;;;;;3.93;3.63;;;6.10;1.70;;;;;;5054695;28;20471;-75
2020/12/07 10:30:22;;;;;;;2.47;2.30;;;6.50;99.90;;;;;;5060864;28;20488;-74
2020/12/07 10:32:49;;;;;;;2.63;2.43;;;6.80;99.90;;;;;;5061373;28;20475;-74
2020/12/07 10:35:17;;;;;;;2.97;2.77;;;6.90;99.90;;;;;;5058061;28;20526;-75
2020/12/07 10:38:03;;;;;;;2.30;2.10;;;7.20;1.00;;;;;;5058685;28;20493;-74
2020/12/07 10:40:30;;;;;;;2.50;2.40;;;7.20;1.00;;;;;;5052570;28;20476;-74
2020/12/07 10:42:58;;;;;;;2.77;2.20;;;6.90;1.00;;;;;;5058531;28;20465;-74
2020/12/07 10:45:25;;;;;;;5.17;2.53;;;6.70;99.90;;;;;;5053873;28;20506;-74
2020/12/07 10:47:53;;;;;;;2.30;2.10;;;6.50;99.90;;;;;;5067103;28;20979;-74
2020/12/07 10:50:20;;;;;;;2.70;2.43;;;6.30;99.90;;;;;;5062394;28;20957;-73
2020/12/07 10:52:50;;;;;;;3.40;2.97;;;6.20;1.00;;;;;;5059690;28;20490;-73
2020/12/07 10:55:18;;;;;;;2.80;2.53;;;6.20;1.00;;;;;;5057263;28;21255;-74
2020/12/07 10:57:45;;;;;;;2.90;2.70;;;6.30;99.90;;;;;;5071332;28;20487;-75
2020/12/07 11:00:13;;;;;;;3.30;3.10;;;6.10;99.90;;;;;;5051895;28;20475;-76
2020/12/07 11:02:40;;;;;;;3.20;3.00;;;5.90;99.90;;;;;;5053377;28;20533;-76
2020/12/07 11:05:07;;;;;;;2.50;2.30;;;5.70;28.00;;;;;;5053777;28;20520;-73
2020/12/07 11:07:34;;;;;;;3.13;2.92;;;5.50;13.20;;;;;;5062395;28;20470;-74
2020/12/07 11:10:01;;;;;;;3.33;2.43;;;5.60;16.10;;;;;;5058180;28;20212;-73
2020/12/07 11:12:29;;;;;;;2.90;2.70;;;5.60;1.00;;;;;;5059011;28;20532;-75
2020/12/07 11:14:56;;;;;;;2.80;2.60;;;5.30;1.00;;;;;;5059724;28;20233;-75
2020/12/07 11:17:23;;;;;;;2.67;2.47;;;5.00;1.00;;;;;;5069627;28;20234;-75
2020/12/07 11:19:50;;;;;;;3.17;2.88;;;5.00;99.90;;;;;;5064992;28;20215;-74
2020/12/07 11:22:17;;;;;;;4.00;2.83;;;5.10;99.90;;;;;;5056600;28;20221;-75
2020/12/07 11:24:44;;;;;;;2.65;2.45;;;5.10;1.00;;;;;;5053320;28;20736;-72
2020/12/07 11:27:12;;;;;;;3.10;2.90;;;5.20;99.90;;;;;;5057955;28;20252;-75
2020/12/07 11:29:40;;;;;;;3.60;2.80;;;5.20;1.00;;;;;;5053630;28;20211;-74
2020/12/07 11:32:07;;;;;;;4.05;3.75;;;5.20;1.00;;;;;;5074640;28;20301;-74
2020/12/07 11:34:34;;;;;;;4.50;3.20;;;5.10;1.00;;;;;;5060539;28;20211;-73
2020/12/07 11:37:01;;;;;;;3.33;3.03;;;5.10;1.00;;;;;;5054865;28;20237;-73
2020/12/07 11:39:37;;;;;;;3.38;3.08;;;5.00;93.80;;;;;;5056475;28;20280;-73
2020/12/07 11:42:13;;;;;;;3.90;3.50;;;4.90;99.90;;;;;;5058320;28;20474;-74
2020/12/07 11:44:41;;;;;;;3.10;2.85;;;4.90;99.90;;;;;;5061948;28;20574;-74
2020/12/07 11:47:09;;;;;;;3.22;2.92;;;4.90;99.90;;;;;;5057854;28;20249;-73
2020/12/07 11:49:36;;;;;;;2.65;2.45;;;4.90;99.90;;;;;;5062772;28;20224;-75
2020/12/07 11:52:04;;;;;;;3.90;3.15;;;4.70;99.90;;;;;;5061266;28;20211;-74
2020/12/07 11:54:31;;;;;;;2.70;2.50;;;4.60;99.90;;;;;;5061320;28;20224;-74
2020/12/07 11:57:03;;;;;;;2.80;2.60;;;4.40;99.90;;;;;;5055345;28;20240;-73
2020/12/07 11:59:34;;;;;;;3.00;2.70;;;4.30;99.90;;;;;;5049295;28;20222;-73
2020/12/07 12:02:05;;;;;;;2.85;2.33;;;4.20;1.00;;;;;;5064136;28;20209;-75
2020/12/07 12:04:32;;;;;;;2.50;2.38;;;4.20;1.00;;;;;;5056855;28;20677;-74
2020/12/07 12:06:59;;;;;;;2.80;2.60;;;4.30;1.00;;;;;;5053949;28;20281;-74
2020/12/07 12:09:26;;;;;;;3.55;2.35;;;4.40;99.90;;;;;;5055455;28;20850;-74
2020/12/07 12:12:01;;;;;;;3.15;2.85;;;4.30;99.90;;;;;;5051042;28;20215;-74
2020/12/07 12:14:28;;;;;;;2.65;2.42;;;4.20;99.90;;;;;;5059224;28;20225;-74
2020/12/07 12:16:56;;;;;;;2.60;2.10;;;4.30;1.00;;;;;;5062448;28;20239;-74
2020/12/07 12:19:25;;;;;;;2.92;2.72;;;4.30;99.90;;;;;;5062355;28;20842;-75
2020/12/07 12:21:52;;;;;;;2.75;2.45;;;4.30;99.90;;;;;;5059882;28;20210;-73
2020/12/07 12:24:19;;;;;;;2.83;2.63;;;4.20;99.90;;;;;;5062405;28;20235;-74
2020/12/07 12:26:47;;;;;;;2.80;2.45;;;4.20;99.90;;;;;;5060969;28;20648;-75
2020/12/07 12:29:14;;;;;;;1.95;1.85;;;4.20;1.00;;;;;;5060999;28;20220;-73
2020/12/07 12:31:44;;;;;;;2.50;2.30;;;4.30;99.90;;;;;;5059095;28;20226;-74
2020/12/07 12:34:11;;;;;;;2.17;1.98;;;4.20;99.90;;;;;;5063451;28;20217;-74
2020/12/07 12:36:39;;;;;;;2.97;2.78;;;4.20;99.90;;;;;;5064348;28;20226;-73
2020/12/07 12:39:07;;;;;;;3.00;2.80;;;4.10;99.90;;;;;;5062337;28;20595;-73
2020/12/07 12:41:34;;;;;;;3.00;2.72;;;4.20;1.00;;;;;;5054599;28;20306;-73
2020/12/07 12:44:07;;;;;;;3.55;3.00;;;4.30;99.90;;;;;;5060489;28;20240;-72
2020/12/07 12:46:34;;;;;;;2.67;2.47;;;4.40;99.90;;;;;;5054898;28;20854;-73
2020/12/07 12:49:01;;;;;;;2.70;2.50;;;4.50;99.90;;;;;;5058879;28;20686;-73
2020/12/07 12:51:28;;;;;;;2.80;2.60;;;4.60;99.90;;;;;;5052588;28;20242;-74
2020/12/07 12:53:56;;;;;;;3.90;2.83;;;4.60;99.90;;;;;;5057904;28;20295;-74
2020/12/07 12:56:24;;;;;;;3.30;3.10;;;4.60;99.90;;;;;;5062729;28;20241;-73
2020/12/07 12:58:51;;;;;;;3.10;2.80;;;4.60;99.90;;;;;;5058195;28;20979;-74
2020/12/07 13:01:18;;;;;;;4.07;3.67;;;4.60;99.90;;;;;;5060269;28;20217;-73
2020/12/07 13:03:46;;;;;;;4.03;3.63;;;4.60;64.70;;;;;;5059755;28;20241;-73
2020/12/07 13:06:13;;;;;;;5.00;3.45;;;4.60;99.90;;;;;;5057359;28;20237;-75
2020/12/07 13:08:40;;;;;;;4.07;3.78;;;4.70;99.90;;;;;;5056132;28;20221;-72
2020/12/07 13:11:08;;;;;;;4.07;3.70;;;4.60;99.90;;;;;;5053324;28;21144;-73
2020/12/07 13:13:37;;;;;;;3.42;3.13;;;4.70;99.90;;;;;;5057591;28;20213;-74
2020/12/07 13:16:07;;;;;;;2.95;2.70;;;4.70;99.90;;;;;;5056220;28;20242;-73
2020/12/07 13:18:42;;;;;;;3.00;2.80;;;4.70;99.90;;;;;;5055064;28;20966;-72
2020/12/07 13:21:15;;;;;;;2.60;2.40;;;4.60;99.90;;;;;;5056681;28;20217;-74
2020/12/07 13:23:48;;;;;;;2.80;2.60;;;4.60;99.90;;;;;;5057408;28;20239;-73
2020/12/07 13:26:22;;;;;;;3.08;2.72;;;4.70;99.90;;;;;;5055213;28;20230;-72
2020/12/07 13:28:50;;;;;;;2.85;2.65;;;4.80;99.90;;;;;;5056632;28;20298;-74
2020/12/07 13:31:17;;;;;;;4.47;2.65;;;4.80;99.90;;;;;;5056697;28;20225;-74